sensor_id;sensor_type;location;lat;lon;timestamp;temperature;humidity
46217;DHT22;47258;59.424;13.482;2022-09-17T06:05:08;9.00;99.90
46217;DHT22;47258;59.424;13.482;2022-09-17T06:07:36;9.00;99.90
46217;DHT22;47258;59.424;13.482;2022-09-17T06:10:04;9.00;99.90
46217;DHT22;47258;59.424;13.482;2022-09-17T06:12:31;9.00;99.90
46217;DHT22;47258;59.424;13.482;2022-09-17T06:15:00;9.00;99.90
46217;DHT22;47258;59.424;13.482;2022-09-17T06:17:27;9.10;99.90
46217;DHT22;47258;59.424;13.482;2022-09-17T06:19:54;9.10;99.90
46217;DHT22;47258;59.424;13.482;2022-09-17T06:22:22;9.10;99.90
46217;DHT22;47258;59.424;13.482;2022-09-17T06:24:49;9.20;99.90
46217;DHT22;47258;59.424;13.482;2022-09-17T06:27:16;9.30;99.90
46217;DHT22;47258;59.424;13.482;2022-09-17T06:29:43;9.30;99.90
46217;DHT22;47258;59.424;13.482;2022-09-17T06:32:10;9.40;99.90
46217;DHT22;47258;59.424;13.482;2022-09-17T06:34:40;9.50;99.90
46217;DHT22;47258;59.424;13.482;2022-09-17T06:37:07;9.70;99.90
46217;DHT22;47258;59.424;13.482;2022-09-17T06:39:36;10.00;99.90
46217;DHT22;47258;59.424;13.482;2022-09-17T06:46:57;10.80;99.90
46217;DHT22;47258;59.424;13.482;2022-09-17T06:49:24;10.90;99.90
46217;DHT22;47258;59.424;13.482;2022-09-17T06:51:51;10.90;99.90
46217;DHT22;47258;59.424;13.482;2022-09-17T06:54:18;10.80;99.90
46217;DHT22;47258;59.424;13.482;2022-09-17T06:56:46;10.80;99.90
46217;DHT22;47258;59.424;13.482;2022-09-17T06:59:13;10.70;99.90
46217;DHT22;47258;59.424;13.482;2022-09-17T07:01:41;10.90;99.90
46217;DHT22;47258;59.424;13.482;2022-09-17T07:04:08;11.20;99.90
46217;DHT22;47258;59.424;13.482;2022-09-17T07:06:35;11.50;99.90
46217;DHT22;47258;59.424;13.482;2022-09-17T07:09:01;11.80;99.90
46217;DHT22;47258;59.424;13.482;2022-09-17T07:11:29;11.80;99.90
46217;DHT22;47258;59.424;13.482;2022-09-17T07:13:57;11.90;99.90
46217;DHT22;47258;59.424;13.482;2022-09-17T07:16:25;11.80;99.90
46217;DHT22;47258;59.424;13.482;2022-09-17T07:18:52;11.80;99.90
46217;DHT22;47258;59.424;13.482;2022-09-17T07:21:19;11.90;99.90
46217;DHT22;47258;59.424;13.482;2022-09-17T07:23:46;12.00;99.90
46217;DHT22;47258;59.424;13.482;2022-09-17T07:26:14;12.00;99.90
46217;DHT22;47258;59.424;13.482;2022-09-17T07:28:42;12.10;99.90
46217;DHT22;47258;59.424;13.482;2022-09-17T07:31:11;12.40;99.90
46217;DHT22;47258;59.424;13.482;2022-09-17T07:33:38;12.50;99.90
46217;DHT22;47258;59.424;13.482;2022-09-17T07:36:07;12.40;99.90
46217;DHT22;47258;59.424;13.482;2022-09-17T07:38:34;12.40;99.90
46217;DHT22;47258;59.424;13.482;2022-09-17T07:41:03;12.60;99.90
46217;DHT22;47258;59.424;13.482;2022-09-17T07:43:31;12.90;99.90
46217;DHT22;47258;59.424;13.482;2022-09-17T07:46:00;13.20;99.90
46217;DHT22;47258;59.424;13.482;2022-09-17T07:48:29;15.10;99.90
46217;DHT22;47258;59.424;13.482;2022-09-17T07:50:56;18.50;99.90
46217;DHT22;47258;59.424;13.482;2022-09-17T07:53:23;20.50;99.90
46217;DHT22;47258;59.424;13.482;2022-09-17T08:03:13;28.00;96.20
46217;DHT22;47258;59.424;13.482;2022-09-17T08:05:42;27.80;96.00
46217;DHT22;47258;59.424;13.482;2022-09-17T08:08:09;28.10;91.70
46217;DHT22;47258;59.424;13.482;2022-09-17T08:10:36;28.40;90.00
46217;DHT22;47258;59.424;13.482;2022-09-17T08:13:03;28.60;83.50
46217;DHT22;47258;59.424;13.482;2022-09-17T08:15:30;27.70;83.60
46217;DHT22;47258;59.424;13.482;2022-09-17T08:17:57;25.30;86.20
46217;DHT22;47258;59.424;13.482;2022-09-17T08:20:24;21.20;91.70
46217;DHT22;47258;59.424;13.482;2022-09-17T08:22:58;20.80;92.90
46217;DHT22;47258;59.424;13.482;2022-09-17T08:25:26;18.90;95.40
46217;DHT22;47258;59.424;13.482;2022-09-17T08:27:53;18.00;97.00
46217;DHT22;47258;59.424;13.482;2022-09-17T08:30:21;17.70;98.90
46217;DHT22;47258;59.424;13.482;2022-09-17T08:32:48;17.20;99.90
46217;DHT22;47258;59.424;13.482;2022-09-17T08:35:15;17.00;99.90
46217;DHT22;47258;59.424;13.482;2022-09-17T08:37:42;16.90;99.90
46217;DHT22;47258;59.424;13.482;2022-09-17T08:40:14;16.70;99.90
46217;DHT22;47258;59.424;13.482;2022-09-17T08:42:50;16.80;99.90
46217;DHT22;47258;59.424;13.482;2022-09-17T08:45:19;16.80;99.90
46217;DHT22;47258;59.424;13.482;2022-09-17T08:47:46;16.60;99.90
46217;DHT22;47258;59.424;13.482;2022-09-17T08:50:15;16.50;99.90
46217;DHT22;47258;59.424;13.482;2022-09-17T08:53:12;16.60;99.90
46217;DHT22;47258;59.424;13.482;2022-09-17T08:55:45;16.60;99.90
46217;DHT22;47258;59.424;13.482;2022-09-17T08:58:39;16.50;99.90
46217;DHT22;47258;59.424;13.482;2022-09-17T09:01:19;16.70;99.90
46217;DHT22;47258;59.424;13.482;2022-09-17T09:04:02;17.50;99.90
46217;DHT22;47258;59.424;13.482;2022-09-17T09:06:34;17.70;99.90
46217;DHT22;47258;59.424;13.482;2022-09-17T09:09:05;17.60;99.90
46217;DHT22;47258;59.424;13.482;2022-09-17T09:11:39;17.20;99.90
46217;DHT22;47258;59.424;13.482;2022-09-17T09:14:12;16.70;99.90
46217;DHT22;47258;59.424;13.482;2022-09-17T09:16:42;16.40;99.90
46217;DHT22;47258;59.424;13.482;2022-09-17T09:19:18;16.20;99.90
46217;DHT22;47258;59.424;13.482;2022-09-17T09:21:59;16.00;99.90
46217;DHT22;47258;59.424;13.482;2022-09-17T09:24:35;15.90;99.90
46217;DHT22;47258;59.424;13.482;2022-09-17T09:27:14;15.80;99.90
46217;DHT22;47258;59.424;13.482;2022-09-17T09:29:51;15.80;99.90
46217;DHT22;47258;59.424;13.482;2022-09-17T09:32:42;15.80;99.90
46217;DHT22;47258;59.424;13.482;2022-09-17T09:35:16;15.70;99.90
46217;DHT22;47258;59.424;13.482;2022-09-17T09:37:49;15.60;99.90
46217;DHT22;47258;59.424;13.482;2022-09-17T09:40:25;15.60;99.90
46217;DHT22;47258;59.424;13.482;2022-09-17T09:42:59;15.60;99.90
46217;DHT22;47258;59.424;13.482;2022-09-17T09:45:37;15.70;99.90
46217;DHT22;47258;59.424;13.482;2022-09-17T09:48:13;15.70;99.90
46217;DHT22;47258;59.424;13.482;2022-09-17T09:50:48;15.80;99.90
46217;DHT22;47258;59.424;13.482;2022-09-17T09:53:23;15.90;99.90
46217;DHT22;47258;59.424;13.482;2022-09-17T09:56:03;15.90;99.90
46217;DHT22;47258;59.424;13.482;2022-09-17T09:58:36;16.00;99.90
46217;DHT22;47258;59.424;13.482;2022-09-17T10:01:12;16.10;99.90
46217;DHT22;47258;59.424;13.482;2022-09-17T10:03:40;16.10;99.90
46217;DHT22;47258;59.424;13.482;2022-09-17T10:06:09;16.20;99.90
46217;DHT22;47258;59.424;13.482;2022-09-17T10:08:37;16.20;99.90
46217;DHT22;47258;59.424;13.482;2022-09-17T10:11:15;16.20;99.90
46217;DHT22;47258;59.424;13.482;2022-09-17T10:13:45;16.30;99.90
46217;DHT22;47258;59.424;13.482;2022-09-17T10:16:17;16.40;99.90
46217;DHT22;47258;59.424;13.482;2022-09-17T10:18:45;16.60;99.90
46217;DHT22;47258;59.424;13.482;2022-09-17T10:21:19;16.70;99.90
46217;DHT22;47258;59.424;13.482;2022-09-17T10:23:46;16.80;99.90
46217;DHT22;47258;59.424;13.482;2022-09-17T10:26:21;16.90;99.90
46217;DHT22;47258;59.424;13.482;2022-09-17T10:28:53;17.00;99.90
46217;DHT22;47258;59.424;13.482;2022-09-17T10:31:21;17.10;99.90
46217;DHT22;47258;59.424;13.482;2022-09-17T10:33:55;17.20;99.90
46217;DHT22;47258;59.424;13.482;2022-09-17T10:36:38;17.20;99.90
46217;DHT22;47258;59.424;13.482;2022-09-17T10:39:19;17.40;99.90
46217;DHT22;47258;59.424;13.482;2022-09-17T10:41:53;17.50;99.90
46217;DHT22;47258;59.424;13.482;2022-09-17T10:44:22;17.50;99.90
46217;DHT22;47258;59.424;13.482;2022-09-17T10:46:50;17.50;99.90
46217;DHT22;47258;59.424;13.482;2022-09-17T10:49:29;17.50;99.90
46217;DHT22;47258;59.424;13.482;2022-09-17T10:52:05;17.60;99.90
46217;DHT22;47258;59.424;13.482;2022-09-17T10:57:54;17.80;99.90
46217;DHT22;47258;59.424;13.482;2022-09-17T11:00:25;17.80;99.90
46217;DHT22;47258;59.424;13.482;2022-09-17T11:03:23;17.90;99.90
46217;DHT22;47258;59.424;13.482;2022-09-17T11:06:14;17.90;99.90
46217;DHT22;47258;59.424;13.482;2022-09-17T11:08:51;18.10;99.90
46217;DHT22;47258;59.424;13.482;2022-09-17T11:11:32;18.10;99.90
46217;DHT22;47258;59.424;13.482;2022-09-17T11:14:09;18.10;99.90
46217;DHT22;47258;59.424;13.482;2022-09-17T11:16:47;18.10;99.90
46217;DHT22;47258;59.424;13.482;2022-09-17T11:19:24;18.00;99.90
46217;DHT22;47258;59.424;13.482;2022-09-17T11:21:59;18.00;99.90
46217;DHT22;47258;59.424;13.482;2022-09-17T11:27:36;17.90;99.90
46217;DHT22;47258;59.424;13.482;2022-09-17T11:30:13;17.80;99.90
46217;DHT22;47258;59.424;13.482;2022-09-17T11:35:44;17.90;99.90
46217;DHT22;47258;59.424;13.482;2022-09-17T11:38:17;18.00;99.90
46217;DHT22;47258;59.424;13.482;2022-09-17T11:40:49;18.10;99.90
46217;DHT22;47258;59.424;13.482;2022-09-17T11:43:22;18.10;99.90
46217;DHT22;47258;59.424;13.482;2022-09-17T11:45:59;18.10;99.90
46217;DHT22;47258;59.424;13.482;2022-09-17T13:20:16;17.60;99.90
46217;DHT22;47258;59.424;13.482;2022-09-17T13:22:48;17.50;99.90
46217;DHT22;47258;59.424;13.482;2022-09-17T13:25:18;17.60;99.90
46217;DHT22;47258;59.424;13.482;2022-09-17T13:27:46;17.50;99.90
46217;DHT22;47258;59.424;13.482;2022-09-17T13:30:15;17.60;99.90
46217;DHT22;47258;59.424;13.482;2022-09-17T13:32:47;17.50;99.90
46217;DHT22;47258;59.424;13.482;2022-09-17T13:35:48;17.50;99.90
46217;DHT22;47258;59.424;13.482;2022-09-17T13:38:17;17.50;99.90
46217;DHT22;47258;59.424;13.482;2022-09-17T13:40:46;17.40;99.90
46217;DHT22;47258;59.424;13.482;2022-09-17T13:43:16;17.30;99.90
46217;DHT22;47258;59.424;13.482;2022-09-17T13:46:06;17.20;99.90
46217;DHT22;47258;59.424;13.482;2022-09-17T13:48:36;17.10;99.90
46217;DHT22;47258;59.424;13.482;2022-09-17T13:54:17;17.00;99.90
46217;DHT22;47258;59.424;13.482;2022-09-17T13:56:48;16.90;99.90
46217;DHT22;47258;59.424;13.482;2022-09-17T13:59:18;16.90;99.90
46217;DHT22;47258;59.424;13.482;2022-09-17T14:01:58;16.80;99.90
46217;DHT22;47258;59.424;13.482;2022-09-17T14:04:45;16.70;99.90
46217;DHT22;47258;59.424;13.482;2022-09-17T14:07:34;16.70;99.90
46217;DHT22;47258;59.424;13.482;2022-09-17T14:10:34;16.70;99.90
46217;DHT22;47258;59.424;13.482;2022-09-17T14:13:27;16.80;99.90
46217;DHT22;47258;59.424;13.482;2022-09-17T14:15:58;16.90;99.90
46217;DHT22;47258;59.424;13.482;2022-09-17T14:18:54;17.10;99.90
46217;DHT22;47258;59.424;13.482;2022-09-17T14:21:26;17.30;99.90
46217;DHT22;47258;59.424;13.482;2022-09-17T14:23:56;17.40;99.90
46217;DHT22;47258;59.424;13.482;2022-09-17T14:26:32;17.60;99.90
46217;DHT22;47258;59.424;13.482;2022-09-17T14:29:13;17.70;99.90
46217;DHT22;47258;59.424;13.482;2022-09-17T14:31:44;17.80;99.90
46217;DHT22;47258;59.424;13.482;2022-09-17T14:34:17;17.90;99.90
46217;DHT22;47258;59.424;13.482;2022-09-17T14:36:45;18.00;99.90
46217;DHT22;47258;59.424;13.482;2022-09-17T14:39:20;18.00;99.90
46217;DHT22;47258;59.424;13.482;2022-09-17T14:41:49;18.10;99.90
46217;DHT22;47258;59.424;13.482;2022-09-17T14:44:20;18.10;99.90
46217;DHT22;47258;59.424;13.482;2022-09-17T14:46:51;18.10;99.90
46217;DHT22;47258;59.424;13.482;2022-09-17T14:49:21;18.00;99.90
46217;DHT22;47258;59.424;13.482;2022-09-17T14:51:48;17.90;99.90
46217;DHT22;47258;59.424;13.482;2022-09-17T14:54:18;17.70;99.90
46217;DHT22;47258;59.424;13.482;2022-09-17T14:56:57;17.70;99.90
